Time;durP1;ratioP1;P1;durP2;ratioP2;P2;SDS_P1;SDS_P2;PMS_P1;PMS_P2;Temp;Humidity;BMP_temperature;BMP_pressure;BME280_temperature;BME280_humidity;BME280_pressure;Samples;Min_cycle;Max_cycle;Signal;HPM_P1;HPM_P2
2023/02/15 00:01:46;;;;;;;;;;;;;;;-144.99;100.00;52444.03;5068987;28;19946;-77
2023/02/15 00:04:15;;;;;;;;;;;;;;;-144.99;100.00;52472.56;5069733;28;19932;-77
2023/02/15 00:06:41;;;;;;;;;;;;;;;-144.99;98.96;52439.94;5068013;28;19930;-76
2023/02/15 00:09:09;;;;;;;;;;;;;;;-144.99;98.86;52415.47;5067911;28;19985;-76
2023/02/15 00:11:42;;;;;;;;;;;;;;;-144.99;99.49;52480.72;5067852;28;19945;-77
2023/02/15 00:14:10;;;;;;;;;;;;;;;-144.99;100.00;52452.16;5065974;28;19984;-76
2023/02/15 00:16:36;;;;;;;;;;;;;;;-144.99;100.00;52452.16;5046498;28;19981;-75
2023/02/15 00:19:03;;;;;;;;;;;;;;;-144.99;100.00;52472.56;5041926;28;20062;-77
2023/02/15 00:21:32;;;;;;;;;;;;;;;-144.99;100.00;52476.63;5043690;28;20008;-75
2023/02/15 00:23:59;;;;;;;;;;;;;;;-144.99;100.00;52452.16;5042355;28;20117;-77
2023/02/15 00:26:25;;;;;;;;;;;;;;;-144.99;100.00;52482.75;5039341;28;19988;-75
2023/02/15 00:28:52;;;;;;;;;;;;;;;-144.99;100.00;52439.94;5040435;28;19986;-75
2023/02/15 00:31:19;;;;;;;;;;;;;;;-144.99;100.00;52480.72;5042383;28;20035;-77
2023/02/15 00:33:45;;;;;;;;;;;;;;;-144.99;100.00;52480.72;5042780;28;20037;-77
2023/02/15 00:36:12;;;;;;;;;;;;;;;-144.99;100.00;52444.03;5041191;28;19947;-76
2023/02/15 00:38:40;;;;;;;;;;;;;;;-144.99;100.00;52470.50;5049110;28;20643;-78
2023/02/15 00:41:08;;;;;;;;;;;;;;;-144.99;100.00;52448.09;5069057;28;19959;-74
2023/02/15 00:43:35;;;;;;;;;;;;;;;-144.99;99.62;52437.91;5044557;28;19971;-75
2023/02/15 00:46:02;;;;;;;;;;;;;;;-144.99;99.60;52472.56;5041288;28;20050;-74
2023/02/15 00:48:28;;;;;;;;;;;;;;;-144.99;99.16;52460.31;5040156;28;20059;-75
2023/02/15 00:50:56;;;;;;;;;;;;;;;-144.99;99.67;52460.31;5050157;28;19991;-75
2023/02/15 00:53:23;;;;;;;;;;;;;;;-144.99;100.00;52456.25;5048994;28;19983;-73
2023/02/15 00:55:50;;;;;;;;;;;;;;;-144.99;99.66;52466.44;5040465;28;20532;-75
2023/02/15 00:58:17;;;;;;;;;;;;;;;-144.99;99.60;52484.78;5035073;28;20041;-74
2023/02/15 01:00:44;;;;;;;;;;;;;;;-144.99;100.00;52454.22;5043476;28;20005;-72
2023/02/15 01:03:11;;;;;;;;;;;;;;;-144.99;100.00;52444.03;5043258;28;20067;-72
2023/02/15 01:05:38;;;;;;;;;;;;;;;-144.99;100.00;52480.72;5042166;28;20046;-72
2023/02/15 01:08:04;;;;;;;;;;;;;;;-144.99;100.00;52460.31;5042464;28;20154;-72
2023/02/15 01:10:31;;;;;;;;;;;;;;;-144.99;100.00;52464.41;5038698;28;20008;-72
2023/02/15 01:12:59;;;;;;;;;;;;;;;-144.99;100.00;52456.25;5044570;28;20014;-71
2023/02/15 01:15:25;;;;;;;;;;;;;;;-144.99;100.00;52456.25;5043185;28;20037;-72
2023/02/15 01:17:53;;;;;;;;;;;;;;;-144.99;100.00;52448.09;4694069;28;10000042;-73
2023/02/15 01:20:19;;;;;;;;;;;;;;;-144.99;100.00;52470.50;5053092;28;19959;-72
2023/02/15 01:22:46;;;;;;;;;;;;;;;-144.99;100.00;52472.56;5046357;28;20514;-71
2023/02/15 01:25:12;;;;;;;;;;;;;;;-144.99;100.00;52460.31;5035786;28;20598;-71
2023/02/15 01:27:39;;;;;;;;;;;;;;;-144.99;100.00;52464.41;5039854;28;20054;-71
2023/02/15 01:30:08;;;;;;;;;;;;;;;-144.99;100.00;52456.25;5037395;28;20417;-71
2023/02/15 01:32:35;;;;;;;;;;;;;;;-144.99;100.00;52419.56;5038962;28;19939;-71
2023/02/15 01:35:01;;;;;;;;;;;;;;;-144.99;100.00;52476.63;5045256;28;19986;-71
2023/02/15 01:37:28;;;;;;;;;;;;;;;-144.99;100.00;52444.03;5045103;28;19999;-71
2023/02/15 01:39:54;;;;;;;;;;;;;;;-144.99;100.00;52456.25;5045220;28;20411;-71
2023/02/15 01:42:22;;;;;;;;;;;;;;;-144.99;100.00;52462.34;5045607;28;20557;-71
2023/02/15 01:44:52;;;;;;;;;;;;;;;-144.99;100.00;52444.03;5043484;28;20040;-71
2023/02/15 01:47:22;;;;;;;;;;;;;;;-144.99;100.00;52482.75;5044120;28;20021;-73
2023/02/15 01:49:53;;;;;;;;;;;;;;;-144.99;100.00;52456.25;5044923;28;19961;-72
2023/02/15 01:52:20;;;;;;;;;;;;;;;-144.99;100.00;52476.63;5044278;28;20565;-74
2023/02/15 01:54:48;;;;;;;;;;;;;;;-144.99;100.00;52476.63;5044259;28;19948;-74
2023/02/15 01:57:17;;;;;;;;;;;;;;;-144.99;100.00;52488.84;5051298;28;19941;-75
2023/02/15 01:59:46;;;;;;;;;;;;;;;-144.99;100.00;52468.47;5071860;28;19947;-75
2023/02/15 02:02:14;;;;;;;;;;;;;;;-144.99;100.00;52472.56;5048469;28;19989;-75
2023/02/15 02:04:44;;;;;;;;;;;;;;;-144.99;100.00;52464.41;5046984;28;20515;-76
2023/02/15 02:07:13;;;;;;;;;;;;;;;-144.99;100.00;52488.84;5039218;28;20532;-74
2023/02/15 02:09:39;;;;;;;;;;;;;;;-144.99;100.00;52441.97;5046193;28;20030;-76
2023/02/15 02:12:06;;;;;;;;;;;;;;;-144.99;100.00;52435.88;5040713;28;20443;-76
2023/02/15 02:14:33;;;;;;;;;;;;;;;-144.99;100.00;52505.16;5043954;28;19992;-74
2023/02/15 02:17:06;;;;;;;;;;;;;;;-144.99;100.00;52464.41;5052698;28;20063;-75
2023/02/15 02:19:47;;;;;;;;;;;;;;;-144.99;100.00;52468.47;5034770;28;20006;-75
2023/02/15 02:22:46;;;;;;;;;;;;;;;-144.99;100.00;52480.72;5043758;28;20434;-74
2023/02/15 02:25:31;;;;;;;;;;;;;;;-144.99;100.00;52480.72;4954204;28;19946;-75
2023/02/15 02:28:09;;;;;;;;;;;;;;;-144.99;100.00;52476.63;4956542;28;20043;-72
2023/02/15 02:30:47;;;;;;;;;;;;;;;-144.99;100.00;52480.72;5015852;28;19991;-73
2023/02/15 02:33:22;;;;;;;;;;;;;;;-144.99;100.00;52458.28;5036656;28;20054;-73
2023/02/15 02:35:54;;;;;;;;;;;;;;;-144.99;100.00;52488.84;5041279;28;19982;-73
2023/02/15 02:38:25;;;;;;;;;;;;;;;-144.99;100.00;52452.16;5064830;28;19965;-72
2023/02/15 02:40:55;;;;;;;;;;;;;;;-144.99;100.00;52464.41;5066338;28;20375;-73
2023/02/15 02:43:26;;;;;;;;;;;;;;;-144.99;100.00;52452.16;5036576;28;19993;-71
2023/02/15 02:45:57;;;;;;;;;;;;;;;-144.99;100.00;52439.94;5038097;28;19988;-74
2023/02/15 02:48:26;;;;;;;;;;;;;;;-144.99;100.00;52427.72;5040189;28;20479;-73
2023/02/15 02:50:53;;;;;;;;;;;;;;;-144.99;100.00;52509.25;5038111;28;19959;-73
2023/02/15 02:53:19;;;;;;;;;;;;;;;-144.99;100.00;52468.47;5053124;28;19957;-72
2023/02/15 02:55:47;;;;;;;;;;;;;;;-144.99;100.00;52492.94;5046994;28;19995;-73
2023/02/15 02:58:17;;;;;;;;;;;;;;;-144.99;100.00;52460.31;5033803;28;20418;-73
2023/02/15 03:00:46;;;;;;;;;;;;;;;-144.99;100.00;52456.25;5041245;28;20061;-73
2023/02/15 03:03:14;;;;;;;;;;;;;;;-144.99;100.00;52492.94;5035645;28;20012;-72
2023/02/15 03:05:45;;;;;;;;;;;;;;;-144.99;100.00;52460.31;5039841;28;20406;-73
2023/02/15 03:08:13;;;;;;;;;;;;;;;-144.99;100.00;52448.09;5040356;28;19949;-71
2023/02/15 03:10:40;;;;;;;;;;;;;;;-144.99;100.00;52456.25;5044729;28;20417;-71
2023/02/15 03:13:07;;;;;;;;;;;;;;;-144.99;100.00;52431.78;5034900;28;20007;-72
2023/02/15 03:18:17;;;;;;;;;;;;;;;-144.99;100.00;52472.56;5057184;28;20068;-71
2023/02/15 03:20:45;;;;;;;;;;;;;;;-144.99;100.00;52484.78;5040815;28;20510;-72
2023/02/15 03:23:14;;;;;;;;;;;;;;;-144.99;100.00;52484.78;5046597;28;20048;-72
2023/02/15 03:25:41;;;;;;;;;;;;;;;-144.99;100.00;52415.47;5044711;28;19956;-70
2023/02/15 03:28:09;;;;;;;;;;;;;;;-144.99;100.00;52456.25;5045524;28;20447;-72
2023/02/15 03:30:37;;;;;;;;;;;;;;;-144.99;100.00;52484.78;5037261;28;19955;-72
2023/02/15 03:33:05;;;;;;;;;;;;;;;-144.99;100.00;52460.31;5033091;28;19992;-72
2023/02/15 03:35:35;;;;;;;;;;;;;;;-144.99;100.00;52497.00;5039511;28;20251;-71
2023/02/15 03:38:04;;;;;;;;;;;;;;;-144.99;100.00;52492.94;5040848;28;20305;-73
2023/02/15 03:43:20;;;;;;;;;;;;;;;-144.99;100.00;52454.22;5045684;28;19951;-74
2023/02/15 03:45:54;;;;;;;;;;;;;;;-144.99;100.00;52474.59;5038959;28;20025;-74
2023/02/15 03:48:22;;;;;;;;;;;;;;;-144.99;100.00;52460.31;5043624;28;19975;-73
2023/02/15 03:53:34;;;;;;;;;;;;;;;-144.99;100.00;52472.56;5041715;28;19958;-76
2023/02/15 03:56:01;;;;;;;;;;;;;;;-144.99;100.00;52460.31;5047654;28;19962;-76
2023/02/15 04:04:10;;;;;;;;;;;;;;;-144.99;100.00;52448.09;5007252;28;19959;-74
2023/02/15 04:06:36;;;;;;;;;;;;;;;-144.99;100.00;52480.72;5043742;28;20414;-74
2023/02/15 04:11:48;;;;;;;;;;;;;;;-144.99;100.00;52452.16;5041097;28;20080;-77
2023/02/15 04:17:00;;;;;;;;;;;;;;;-144.99;100.00;52488.84;5015636;28;19952;-74
2023/02/15 04:25:12;;;;;;;;;;;;;;;-144.99;100.00;52484.78;5034462;28;19950;-74
2023/02/15 04:27:38;;;;;;;;;;;;;;;-144.99;100.00;52439.94;5046257;28;19947;-74
2023/02/15 04:30:06;;;;;;;;;;;;;;;-144.99;100.00;52488.84;5047311;28;20022;-72
2023/02/15 04:32:32;;;;;;;;;;;;;;;-144.99;100.00;52462.34;5048689;28;20013;-73
2023/02/15 04:34:59;;;;;;;;;;;;;;;-144.99;100.00;52452.16;5046003;28;20040;-73
2023/02/15 04:37:25;;;;;;;;;;;;;;;-144.99;100.00;52452.16;5063890;28;19967;-73
2023/02/15 04:39:52;;;;;;;;;;;;;;;-144.99;100.00;52505.16;5052843;28;19988;-73
2023/02/15 04:42:20;;;;;;;;;;;;;;;-144.99;100.00;52456.25;5045122;28;20457;-73
2023/02/15 04:44:46;;;;;;;;;;;;;;;-144.99;100.00;52480.72;5034706;28;20028;-72
2023/02/15 04:47:13;;;;;;;;;;;;;;;-144.99;100.00;52488.84;5051780;28;19998;-73
2023/02/15 04:49:39;;;;;;;;;;;;;;;-144.99;100.00;52513.31;5038552;28;20019;-72
2023/02/15 04:52:05;;;;;;;;;;;;;;;-144.99;100.00;52468.47;5037138;28;20037;-72
2023/02/15 04:54:32;;;;;;;;;;;;;;;-144.99;100.00;52448.09;5036556;28;20395;-73
2023/02/15 04:56:58;;;;;;;;;;;;;;;-144.99;100.00;52452.16;5046035;28;19976;-73
2023/02/15 04:59:26;;;;;;;;;;;;;;;-144.99;100.00;52452.16;5044072;28;20054;-72
2023/02/15 05:01:53;;;;;;;;;;;;;;;-144.99;100.00;52448.09;5076848;22;20082;-79
2023/02/15 05:04:19;;;;;;;;;;;;;;;-144.99;100.00;52490.91;5051013;28;19990;-78
2023/02/15 05:06:46;;;;;;;;;;;;;;;-144.99;100.00;52503.13;5038323;28;19981;-79
2023/02/15 05:09:12;;;;;;;;;;;;;;;-144.99;100.00;52446.06;5041793;28;19987;-81
2023/02/15 05:11:39;;;;;;;;;;;;;;;-144.99;100.00;52444.03;5050698;28;20028;-77
2023/02/15 05:14:05;;;;;;;;;;;;;;;-144.99;100.00;52448.09;5053334;28;20276;-81
2023/02/15 05:16:33;;;;;;;;;;;;;;;-144.99;100.00;52456.25;5042500;28;19940;-80
2023/02/15 05:18:59;;;;;;;;;;;;;;;-144.99;100.00;52437.91;5041808;28;20085;-79
2023/02/15 05:21:26;;;;;;;;;;;;;;;-144.99;100.00;52452.16;5042905;28;20047;-79
2023/02/15 05:23:52;;;;;;;;;;;;;;;-144.99;100.00;52454.22;5045766;28;20261;-80
2023/02/15 05:29:04;;;;;;;;;;;;;;;-144.99;100.00;52464.41;5051147;28;19952;-80
2023/02/15 05:31:31;;;;;;;;;;;;;;;-144.99;100.00;52439.94;5073304;28;19945;-82
2023/02/15 05:33:59;;;;;;;;;;;;;;;-144.99;100.00;52456.25;5067607;28;19946;-81
2023/02/15 05:36:26;;;;;;;;;;;;;;;-144.99;100.00;52450.13;5049175;28;19978;-78
2023/02/15 05:38:52;;;;;;;;;;;;;;;-144.99;100.00;52454.22;5038132;28;19967;-79
2023/02/15 05:41:18;;;;;;;;;;;;;;;-144.99;100.00;52484.78;5036980;28;19970;-83
2023/02/15 05:43:45;;;;;;;;;;;;;;;-144.99;100.00;52423.63;5043834;28;20432;-79
2023/02/15 05:46:12;;;;;;;;;;;;;;;-144.99;100.00;52452.16;5052216;28;19949;-79
2023/02/15 05:48:39;;;;;;;;;;;;;;;-144.99;100.00;52505.16;5042682;28;20032;-79
2023/02/15 05:51:07;;;;;;;;;;;;;;;-144.99;100.00;52472.56;5042860;28;20437;-81
2023/02/15 05:53:36;;;;;;;;;;;;;;;-144.99;100.00;52462.34;5045835;28;19939;-82
2023/02/15 05:56:02;;;;;;;;;;;;;;;-144.99;100.00;52456.25;5046504;28;20061;-77
2023/02/15 05:58:31;;;;;;;;;;;;;;;-144.99;100.00;52419.56;5036052;28;20033;-78
2023/02/15 06:00:57;;;;;;;;;;;;;;;-144.99;100.00;52460.31;5037092;28;20045;-79
2023/02/15 06:03:25;;;;;;;;;;;;;;;-144.99;100.00;52464.41;5046140;28;20306;-77
2023/02/15 06:05:51;;;;;;;;;;;;;;;-144.99;100.00;52484.78;5056119;28;20417;-85
2023/02/15 06:08:19;;;;;;;;;;;;;;;-144.99;100.00;52472.56;5072533;28;19943;-83
2023/02/15 06:10:46;;;;;;;;;;;;;;;-144.99;100.00;52458.28;5056648;28;19980;-77
2023/02/15 06:13:13;;;;;;;;;;;;;;;-144.99;100.00;52468.47;5037843;28;19997;-78
2023/02/15 06:15:39;;;;;;;;;;;;;;;-144.99;100.00;52464.41;5051344;28;19982;-83
2023/02/15 06:18:06;;;;;;;;;;;;;;;-144.99;100.00;52464.41;5046731;28;19983;-77
2023/02/15 06:20:32;;;;;;;;;;;;;;;-144.99;100.00;52456.25;5042890;28;19974;-81
2023/02/15 06:22:59;;;;;;;;;;;;;;;-144.99;100.00;52476.63;5042655;28;20473;-77
2023/02/15 06:25:27;;;;;;;;;;;;;;;-144.99;100.00;52488.84;5044861;28;20695;-79
2023/02/15 06:27:53;;;;;;;;;;;;;;;-144.99;100.00;52456.25;5053864;28;19951;-79
2023/02/15 06:30:20;;;;;;;;;;;;;;;-144.99;100.00;52468.47;5047645;28;20049;-78
2023/02/15 06:32:46;;;;;;;;;;;;;;;-144.99;100.00;52444.03;5046475;28;20018;-80
2023/02/15 06:35:13;;;;;;;;;;;;;;;-144.99;100.00;52452.16;5047823;28;20342;-76
2023/02/15 06:37:39;;;;;;;;;;;;;;;-144.99;100.00;52501.09;5053617;28;20398;-79
2023/02/15 06:40:07;;;;;;;;;;;;;;;-144.99;100.00;52509.25;5047460;28;19985;-83
2023/02/15 06:42:35;;;;;;;;;;;;;;;-144.99;100.00;52454.22;5073972;28;20048;-82
2023/02/15 06:45:02;;;;;;;;;;;;;;;-144.99;100.00;52492.94;5044603;28;20345;-81
2023/02/15 06:47:28;;;;;;;;;;;;;;;-144.99;100.00;52468.47;5038950;28;20389;-80
2023/02/15 06:49:54;;;;;;;;;;;;;;;-144.99;100.00;52501.09;5049214;28;19942;-79
2023/02/15 06:52:21;;;;;;;;;;;;;;;-144.99;100.00;52460.31;5037990;28;20059;-78
2023/02/15 06:54:47;;;;;;;;;;;;;;;-144.99;100.00;52464.41;5039426;28;19939;-83
2023/02/15 06:57:14;;;;;;;;;;;;;;;-144.99;100.00;52460.31;5039838;28;20034;-79
2023/02/15 06:59:42;;;;;;;;;;;;;;;-144.99;100.00;52431.78;5045175;28;20084;-80
2023/02/15 07:02:09;;;;;;;;;;;;;;;-144.99;100.00;52460.31;5049303;28;19972;-76
2023/02/15 07:04:35;;;;;;;;;;;;;;;-144.99;100.00;52452.16;5046700;28;20466;-78
2023/02/15 07:07:02;;;;;;;;;;;;;;;-144.99;100.00;52460.31;5047968;28;20007;-76
2023/02/15 07:09:28;;;;;;;;;;;;;;;-144.99;100.00;52468.47;5044713;28;19968;-77
2023/02/15 07:14:40;;;;;;;;;;;;;;;-144.99;100.00;52444.03;5040704;28;19949;-80
2023/02/15 07:17:08;;;;;;;;;;;;;;;-144.99;100.00;52441.97;5036760;28;19968;-78
2023/02/15 07:19:34;;;;;;;;;;;;;;;-144.99;100.00;52444.03;5042329;28;19961;-78
2023/02/15 07:22:01;;;;;;;;;;;;;;;-144.99;100.00;52472.56;5045067;28;20033;-82
2023/02/15 07:24:27;;;;;;;;;;;;;;;-144.99;100.00;52454.22;5046088;28;20009;-76
2023/02/15 07:26:54;;;;;;;;;;;;;;;-144.99;100.00;52476.63;5040377;28;20314;-75
2023/02/15 07:29:20;;;;;;;;;;;;;;;-144.99;100.00;52411.41;5045551;28;20398;-77
2023/02/15 07:31:47;;;;;;;;;;;;;;;-144.99;100.00;52444.03;5048752;28;19994;-75
2023/02/15 07:34:15;;;;;;;;;;;;;;;-144.99;100.00;52435.88;5038103;28;20039;-82
2023/02/15 07:36:43;;;;;;;;;;;;;;;-144.99;100.00;52492.94;5054692;28;20488;-76
2023/02/15 07:39:10;;;;;;;;;;;;;;;-144.99;100.00;52501.09;5054356;28;19967;-74
2023/02/15 07:41:36;;;;;;;;;;;;;;;-144.99;100.00;52444.03;5043889;28;20375;-79
2023/02/15 07:44:03;;;;;;;;;;;;;;;-144.99;100.00;52472.56;5051048;28;19945;-78
2023/02/15 07:46:30;;;;;;;;;;;;;;;-144.99;100.00;52441.97;5043848;28;20073;-78
2023/02/15 07:48:56;;;;;;;;;;;;;;;-144.99;100.00;52472.56;5046075;28;19968;-83
2023/02/15 07:51:24;;;;;;;;;;;;;;;-144.99;100.00;52427.72;5064831;28;19950;-82
2023/02/15 07:53:51;;;;;;;;;;;;;;;-144.99;100.00;52439.94;5043413;28;19939;-78
2023/02/15 07:56:17;;;;;;;;;;;;;;;-144.99;100.00;52452.16;5041905;28;20390;-77
2023/02/15 07:58:55;;;;;;;;;;;;;;;-144.99;100.00;52468.47;5050755;28;20030;-78
2023/02/15 08:01:22;;;;;;;;;;;;;;;-144.99;100.00;52472.56;5032073;28;19965;-80
2023/02/15 08:03:49;;;;;;;;;;;;;;;-144.99;100.00;52456.25;5042835;28;19988;-79
2023/02/15 08:06:16;;;;;;;;;;;;;;;-144.99;100.00;52480.72;5036716;28;19952;-78
2023/02/15 08:08:44;;;;;;;;;;;;;;;-144.99;100.00;52407.31;5035273;28;20034;-76
2023/02/15 08:11:32;;;;;;;;;;;;;;;-144.99;100.00;52439.94;5041196;28;19952;-79
2023/02/15 08:14:00;;;;;;;;;;;;;;;-144.99;100.00;52472.56;5046446;28;19997;-79
2023/02/15 08:16:27;;;;;;;;;;;;;;;-144.99;100.00;52468.47;5041016;28;20053;-77
2023/02/15 08:18:54;;;;;;;;;;;;;;;-144.99;100.00;52472.56;5039724;28;20422;-78
2023/02/15 08:21:21;;;;;;;;;;;;;;;-144.99;100.00;52484.78;5038974;28;21180;-80
2023/02/15 08:23:49;;;;;;;;;;;;;;;-144.99;100.00;52456.25;5041830;28;20377;-77
2023/02/15 08:26:16;;;;;;;;;;;;;;;-144.99;100.00;52468.47;5061697;28;19959;-83
2023/02/15 08:28:43;;;;;;;;;;;;;;;-144.99;100.00;52403.25;5047934;28;19966;-78
2023/02/15 08:31:10;;;;;;;;;;;;;;;-144.99;100.00;52452.16;5038281;28;19993;-79
2023/02/15 08:33:38;;;;;;;;;;;;;;;-144.99;100.00;52476.63;5047780;28;19996;-79
2023/02/15 08:36:05;;;;;;;;;;;;;;;-144.99;100.00;52460.31;5045828;28;19946;-79
2023/02/15 08:38:32;;;;;;;;;;;;;;;-144.99;100.00;52456.25;5051212;28;19948;-78
2023/02/15 08:41:09;;;;;;;;;;;;;;;-144.99;100.00;52444.03;5039121;28;19963;-79
2023/02/15 08:43:35;;;;;;;;;;;;;;;-144.99;100.00;52403.25;5037968;28;19989;-81
2023/02/15 08:46:02;;;;;;;;;;;;;;;-144.99;100.00;52472.56;5038222;28;20004;-79
2023/02/15 08:48:28;;;;;;;;;;;;;;;-144.99;100.00;52427.72;5051185;28;20002;-78
2023/02/15 08:50:54;;;;;;;;;;;;;;;-144.99;100.00;52433.81;5044104;28;20032;-79
2023/02/15 08:53:21;;;;;;;;;;;;;;;-144.99;100.00;52458.28;5042562;28;20007;-79
2023/02/15 08:55:51;;;;;;;;;;;;;;;-144.99;100.00;52423.63;5045788;28;19941;-81
2023/02/15 08:58:18;;;;;;;;;;;;;;;-144.99;100.00;52454.22;5055101;28;20385;-80
2023/02/15 09:00:45;;;;;;;;;;;;;;;-144.99;100.00;52435.88;5070450;28;19955;-83
2023/02/15 09:03:11;;;;;;;;;;;;;;;-144.99;100.00;52452.16;5057513;28;20020;-81
2023/02/15 09:05:38;;;;;;;;;;;;;;;-144.99;100.00;52476.63;5053978;28;20096;-79
2023/02/15 09:08:05;;;;;;;;;;;;;;;-144.99;100.00;52486.81;5053515;28;19969;-79
2023/02/15 09:10:31;;;;;;;;;;;;;;;-144.99;100.00;52452.16;5052163;28;19944;-80
2023/02/15 09:12:58;;;;;;;;;;;;;;;-144.99;100.00;52419.56;5051993;28;20096;-79
2023/02/15 09:15:25;;;;;;;;;;;;;;;-144.99;100.00;52454.22;5034464;28;19985;-78
2023/02/15 09:17:52;;;;;;;;;;;;;;;-144.99;100.00;52419.56;5049922;28;20011;-79
2023/02/15 09:20:18;;;;;;;;;;;;;;;-144.99;100.00;52472.56;5049313;28;20525;-80
2023/02/15 09:22:45;;;;;;;;;;;;;;;-144.99;100.00;52407.31;5032158;28;20447;-82
2023/02/15 09:25:13;;;;;;;;;;;;;;;-144.99;100.00;52439.94;5036905;28;19996;-82
2023/02/15 09:27:40;;;;;;;;;;;;;;;-144.99;100.00;52460.31;5045279;28;20005;-80
2023/02/15 09:30:07;;;;;;;;;;;;;;;-144.99;100.00;52419.56;5053826;28;19964;-82
2023/02/15 09:32:35;;;;;;;;;;;;;;;-144.99;100.00;52419.56;5056600;28;19954;-82
2023/02/15 09:35:02;;;;;;;;;;;;;;;-144.99;100.00;52435.88;5053308;28;20025;-79
2023/02/15 09:37:28;;;;;;;;;;;;;;;-144.99;100.00;52452.16;5051413;28;20534;-82
2023/02/15 09:39:55;;;;;;;;;;;;;;;-144.99;100.00;52435.88;5057512;28;20057;-80
2023/02/15 09:42:52;;;;;;;;;;;;;;;-144.99;100.00;52466.44;5053087;28;19969;-81
2023/02/15 09:45:24;;;;;;;;;;;;;;;-144.99;100.00;52480.72;4982066;28;20304;-82
2023/02/15 09:48:12;;;;;;;;;;;;;;;-144.99;100.00;52460.31;5027880;28;20041;-77
2023/02/15 09:50:46;;;;;;;;;;;;;;;-144.99;100.00;52441.97;5040787;28;20054;-79
2023/02/15 09:53:30;;;;;;;;;;;;;;;-144.99;100.00;52452.16;5048771;28;20431;-77
2023/02/15 09:56:02;;;;;;;;;;;;;;;-144.99;100.00;52464.41;5028388;28;19946;-80
2023/02/15 09:58:36;;;;;;;;;;;;;;;-144.99;100.00;52450.13;5049756;28;19989;-80
2023/02/15 10:01:07;;;;;;;;;;;;;;;-144.99;100.00;52452.16;5049997;28;19968;-81
2023/02/15 10:03:42;;;;;;;;;;;;;;;-144.99;100.00;52452.16;5046260;28;19938;-80
2023/02/15 10:06:28;;;;;;;;;;;;;;;-144.99;100.00;52458.28;5044924;28;20015;-78
2023/02/15 10:09:02;;;;;;;;;;;;;;;-144.99;100.00;52484.78;5068324;28;19989;-83
2023/02/15 10:11:44;;;;;;;;;;;;;;;-144.99;100.00;52480.72;5055766;28;20286;-79
2023/02/15 10:14:18;;;;;;;;;;;;;;;-144.99;100.00;52452.16;5044542;28;19947;-80
2023/02/15 10:16:52;;;;;;;;;;;;;;;-144.99;100.00;52419.56;5042628;28;19972;-79
2023/02/15 10:19:22;;;;;;;;;;;;;;;-144.99;100.00;52448.09;5046155;28;19944;-81
2023/02/15 10:21:56;;;;;;;;;;;;;;;-144.99;100.00;52492.94;5047750;28;19968;-81
2023/02/15 10:24:30;;;;;;;;;;;;;;;-144.99;100.00;52450.13;5043525;28;19978;-79
2023/02/15 10:26:59;;;;;;;;;;;;;;;-144.99;100.00;52425.66;5042113;28;20038;-79
2023/02/15 10:29:31;;;;;;;;;;;;;;;-144.99;100.00;52472.56;5043334;28;19987;-80
2023/02/15 10:32:03;;;;;;;;;;;;;;;-144.99;100.00;52448.09;5046108;28;20034;-82
2023/02/15 10:34:36;;;;;;;;;;;;;;;-144.99;100.00;52433.81;5038380;28;19989;-79
2023/02/15 10:37:16;;;;;;;;;;;;;;;-144.99;99.97;52439.94;5044663;28;20026;-79
2023/02/15 10:39:50;;;;;;;;;;;;;;;-144.99;100.00;52401.22;5046911;28;20378;-77
2023/02/15 10:42:26;;;;;;;;;;;;;;;-144.99;99.51;52470.50;5042705;28;20511;-83
2023/02/15 10:45:00;;;;;;;;;;;;;;;-144.99;99.58;52431.78;5056302;28;19934;-83
2023/02/15 10:47:35;;;;;;;;;;;;;;;-144.99;99.55;52425.66;5056853;28;19945;-81
2023/02/15 10:50:14;;;;;;;;;;;;;;;-144.99;99.54;52423.63;5055366;28;20093;-79
2023/02/15 10:52:51;;;;;;;;;;;;;;;-144.99;99.25;52468.47;5045824;28;20166;-81
2023/02/15 10:55:22;;;;;;;;;;;;;;;-144.99;99.34;52484.78;5048702;28;19943;-82
2023/02/15 10:57:52;;;;;;;;;;;;;;;-144.99;99.48;52407.31;5052168;28;19946;-79
2023/02/15 11:00:21;;;;;;;;;;;;;;;-144.99;98.46;52427.72;5047415;28;19953;-80
2023/02/15 11:02:59;;;;;;;;;;;;;;;-144.99;99.15;52427.72;5050108;28;19963;-78
2023/02/15 11:05:36;;;;;;;;;;;;;;;-144.99;99.38;52444.03;5073865;22;19952;-75
2023/02/15 11:08:07;;;;;;;;;;;;;;;-144.99;99.70;52497.00;5025869;28;19943;-76
2023/02/15 11:10:36;;;;;;;;;;;;;;;-144.99;98.96;52448.09;5021611;28;20385;-76
2023/02/15 11:13:05;;;;;;;;;;;;;;;-144.99;98.98;52431.78;5033052;28;19986;-76
2023/02/15 11:15:34;;;;;;;;;;;;;;;-144.99;98.44;52472.56;5023433;28;19941;-76
2023/02/15 11:18:03;;;;;;;;;;;;;;;-144.99;97.21;52476.63;5026767;28;20307;-77
2023/02/15 11:20:34;;;;;;;;;;;;;;;-144.99;97.20;52435.88;5022591;28;20367;-76
2023/02/15 11:23:02;;;;;;;;;;;;;;;-144.99;96.28;52439.94;5025757;28;19951;-73
2023/02/15 11:25:31;;;;;;;;;;;;;;;-144.99;96.56;52435.88;5019532;28;19980;-74
2023/02/15 11:27:58;;;;;;;;;;;;;;;-144.99;96.77;52427.72;5021368;28;19989;-75
2023/02/15 11:30:26;;;;;;;;;;;;;;;-144.99;96.67;52423.63;5023862;28;19998;-76
2023/02/15 11:32:54;;;;;;;;;;;;;;;-144.99;96.40;52427.72;5017125;28;20039;-77
2023/02/15 11:35:23;;;;;;;;;;;;;;;-144.99;96.81;52456.25;5028780;28;19951;-75
2023/02/15 11:37:52;;;;;;;;;;;;;;;-144.99;97.10;52444.03;5045196;28;19930;-76
2023/02/15 11:40:22;;;;;;;;;;;;;;;-144.99;97.18;52456.25;5029915;28;20008;-75
2023/02/15 11:42:52;;;;;;;;;;;;;;;-144.99;96.94;52460.31;5020207;28;20432;-75
2023/02/15 11:45:23;;;;;;;;;;;;;;;-144.99;96.95;52439.94;5021755;28;20434;-77
2023/02/15 11:47:49;;;;;;;;;;;;;;;-144.99;96.89;52423.63;5032229;28;20044;-76
2023/02/15 11:50:18;;;;;;;;;;;;;;;-144.99;95.74;52435.88;5029650;28;20006;-74
2023/02/15 11:52:44;;;;;;;;;;;;;;;-144.99;95.84;52419.56;5018476;28;20057;-76
2023/02/15 11:55:13;;;;;;;;;;;;;;;-144.99;95.65;52399.19;5022530;28;19982;-74
2023/02/15 11:57:43;;;;;;;;;;;;;;;-144.99;95.82;52464.41;5024889;28;19964;-71
2023/02/15 12:00:16;;;;;;;;;;;;;;;-144.99;95.77;52456.25;5024053;28;20364;-75
2023/02/15 12:02:45;;;;;;;;;;;;;;;-144.99;96.37;52423.63;5020858;28;20608;-73
2023/02/15 12:05:14;;;;;;;;;;;;;;;-144.99;96.67;52405.28;5012537;28;20012;-74
2023/02/15 12:07:43;;;;;;;;;;;;;;;-144.99;96.57;52423.63;5019302;28;20837;-73
2023/02/15 12:10:17;;;;;;;;;;;;;;;-144.99;96.81;52450.13;5027104;28;19978;-76
2023/02/15 12:12:44;;;;;;;;;;;;;;;-144.99;97.01;52401.22;5021483;28;20432;-74
2023/02/15 12:15:13;;;;;;;;;;;;;;;-144.99;96.62;52417.53;5037290;28;20278;-78
2023/02/15 12:17:41;;;;;;;;;;;;;;;-144.99;95.79;52419.56;5039031;28;19949;-74
2023/02/15 12:20:21;;;;;;;;;;;;;;;-144.99;96.03;52456.25;5029187;28;19953;-74
2023/02/15 12:22:50;;;;;;;;;;;;;;;-144.99;96.53;52435.88;5022169;28;20090;-75
2023/02/15 12:25:22;;;;;;;;;;;;;;;-144.99;96.01;52439.94;5018228;28;20012;-74
2023/02/15 12:27:48;;;;;;;;;;;;;;;-144.99;96.10;52427.72;5013980;28;20450;-78
2023/02/15 12:30:20;;;;;;;;;;;;;;;-144.99;96.38;52407.31;5023101;28;20386;-75
2023/02/15 12:32:51;;;;;;;;;;;;;;;-144.99;96.33;52423.63;5018685;28;20372;-76
2023/02/15 12:35:22;;;;;;;;;;;;;;;-144.99;94.46;52423.63;5027437;28;20004;-75
2023/02/15 12:37:53;;;;;;;;;;;;;;;-144.99;93.78;52480.72;5027328;28;19979;-74
2023/02/15 12:40:21;;;;;;;;;;;;;;;-144.99;94.11;52488.84;5025030;28;19950;-75
2023/02/15 12:42:48;;;;;;;;;;;;;;;-144.99;94.18;52419.56;5022319;28;19994;-75
2023/02/15 12:45:24;;;;;;;;;;;;;;;-144.99;94.31;52444.03;5019961;28;20653;-75
2023/02/15 12:48:08;;;;;;;;;;;;;;;-144.99;94.62;52427.72;5021718;28;20057;-75
2023/02/15 12:50:35;;;;;;;;;;;;;;;-144.99;95.32;52415.47;5031436;28;19977;-75
2023/02/15 12:53:07;;;;;;;;;;;;;;;-144.99;95.20;52421.59;5049789;28;19934;-76
2023/02/15 12:55:34;;;;;;;;;;;;;;;-144.99;95.52;52464.41;5031544;28;20405;-78
2023/02/15 12:58:07;;;;;;;;;;;;;;;-144.99;94.68;52427.72;5026950;28;19951;-73